• Join FlightAware (Why Join?)
  • Login
  • US Flag 
11:34PM EDT


 

Airport Tracker/Info


-or-


 

Live Flight TrackerFlight Track Log ✈ N543JC ✈ 30-Apr-2012 ✈ KGED - KLOM

Flight Track Log - Related Links

Times and Time Zones

All times are in EDT time to prevent confusion due to time zone crossing. See the N543JC flight status page for this flight to view local times or setup timezone preferences in your user account.

Time Position Orientation Groundspeed Altitude Reporting Facility
EDT Latitude Longitude Course Direction KTS MPH feet Rate Location/Type
12:05PM 38.9106 -75.4108 351° North 172 198 3,300  Level FAA TRACON SMA TRACON (SMA)
12:06PM 38.9397 -75.4169 350° North 164 189 3,700 600 Climbing FAA TRACON SMA TRACON (SMA)
12:07PM 38.9706 -75.4242 349° North 162 186 4,100 600 Climbing FAA TRACON SMA TRACON (SMA)
12:07PM 39.0011 -75.4317 349° North 161 185 4,500 540 Climbing FAA TRACON SMA TRACON (SMA)
12:08PM 39.0314 -75.4392 349° North 159 183 4,900 360 Climbing FAA TRACON SMA TRACON (SMA)
12:09PM 39.0586 -75.4461 349° North 162 186 5,000 120 Climbing FAA TRACON SMA TRACON (SMA)
12:09PM 39.0903 -75.4539 347° North 175 201 5,100  Climbing FAA TRACON SMA TRACON (SMA)
12:10PM 39.1225 -75.4636 349° North 178 205 5,000 -120 Descending FAA TRACON SMA TRACON (SMA)
12:11PM 39.1558 -75.4719 348° North 177 204 5,000  Level FAA TRACON SMA TRACON (SMA)
12:11PM 39.1889 -75.4808 350° North 175 201 5,000  Level FAA TRACON SMA TRACON (SMA)
12:12PM 39.2183 -75.4875 347° North 175 201 5,000 60 Level FAA TRACON SMA TRACON (SMA)
12:13PM 39.2514 -75.4975 350° North 176 203 5,100  Climbing FAA TRACON SMA TRACON (SMA)
12:13PM 39.2844 -75.5050 346° North 173 199 5,000 -120 Descending FAA TRACON SMA TRACON (SMA)
12:14PM 39.3169 -75.5153 355° North 175 201 5,000  Level FAA TRACON SMA TRACON (SMA)
12:15PM 39.3458 -75.5183 334° Northwest 176 203 5,000  Level FAA TRACON SMA TRACON (SMA)
12:15PM 39.3767 -75.5375 338° Northwest 187 215 5,000 60 Level FAA TRACON SMA TRACON (SMA)
12:16PM 39.4044 -75.5522 339° North 169 194 5,100 -120 Climbing FAA TRACON SMA TRACON (SMA)
12:17PM 39.4358 -75.5681 333° Northwest 173 199 4,900 -420 Descending FAA TRACON SMA TRACON (SMA)
12:17PM 39.4672 -75.5883 332° Northwest 182 209 4,600 -540 Descending FAA TRACON SMA TRACON (SMA)
12:18PM 39.4989 -75.6097 330° Northwest 185 213 4,200 -540 Descending FAA TRACON SMA TRACON (SMA)
12:19PM 39.5275 -75.6311 333° Northwest 190 219 3,900 -480 Descending FAA TRACON SMA TRACON (SMA)
12:19PM 39.5611 -75.6531 332° Northwest 193 222 3,600 -480 Descending FAA TRACON SMA TRACON (SMA)
12:20PM 39.5903 -75.6728 328° Northwest 199 229 3,300 -420 Descending FAA TRACON SMA TRACON (SMA)
12:21PM 39.6244 -75.7003 329° Northwest 198 228 3,100 -180 Descending FAA TRACON SMA TRACON (SMA)
12:21PM 39.6558 -75.7250 346° North 191 220 3,100  Level FAA TRACON SMA TRACON (SMA)
12:22PM 39.6875 -75.7350 351° North 179 206 3,100  Level FAA TRACON SMA TRACON (SMA)
12:23PM 39.7228 -75.7419 348° North 187 215 3,100 -300 Level FAA TRACON SMA TRACON (SMA)
12:23PM 39.7583 -75.7519 38° Northeast 188 216 2,700 -540 Descending FAA TRACON SMA TRACON (SMA)
12:24PM 39.7844 -75.7256 58° Northeast 199 229 2,400 -480 Descending FAA TRACON SMA TRACON (SMA)
12:25PM 39.8047 -75.6836 39° Northeast 200 230 2,100 -240 Descending FAA TRACON SMA TRACON (SMA)
12:25PM 39.8325 -75.6542 45° Northeast 184 212 2,100  Level FAA TRACON SMA TRACON (SMA)
12:26PM 39.8533 -75.6267 46° Northeast 182 209 2,100  Level FAA TRACON SMA TRACON (SMA)
12:27PM 39.8783 -75.5925 43° Northeast 183 211 2,100  Level FAA TRACON SMA TRACON (SMA)
12:27PM 39.9036 -75.5622 46° Northeast 178 205 2,100 -120 Level FAA TRACON SMA TRACON (SMA)
12:28PM 39.9258 -75.5325 43° Northeast 181 208 2,000 -180 Descending FAA TRACON SMA TRACON (SMA)
12:29PM 39.9511 -75.5014 45° Northeast 183 211 1,900 -300 Descending FAA TRACON SMA TRACON (SMA)
12:29PM 39.9772 -75.4678 44° Northeast 190 219 1,600 -240 Descending FAA TRACON SMA TRACON (SMA)
12:30PM 39.9992 -75.4400 43° Northeast 182 209 1,600  Level FAA TRACON SMA TRACON (SMA)
12:31PM 40.0247 -75.4089 44° Northeast 178 205 1,600  Level FAA TRACON SMA TRACON (SMA)
12:31PM 40.0494 -75.3778 43° Northeast 178 205 1,600  Level FAA TRACON SMA TRACON (SMA)
12:32PM 40.0628 -75.3617 43° Northeast 173 199 1,600  Level FAA TRACON SMA TRACON (SMA)